createdAt,value
2022-08-03T00:01:37.962Z,21.88
2022-08-03T00:04:08.655Z,21.86
2022-08-03T00:06:37.258Z,21.84
2022-08-03T00:09:05.809Z,21.86
2022-08-03T00:11:33.567Z,21.81
2022-08-03T00:14:01.367Z,21.75
2022-08-03T00:16:28.887Z,21.68
2022-08-03T00:18:56.212Z,21.69
2022-08-03T00:21:23.689Z,21.74
2022-08-03T00:23:52.877Z,21.65
2022-08-03T00:26:21.222Z,21.56
2022-08-03T00:28:49.427Z,21.49
2022-08-03T00:31:16.904Z,21.46
2022-08-03T00:34:03.484Z,21.40
2022-08-03T00:36:31.580Z,21.39
2022-08-03T00:38:58.903Z,21.34
2022-08-03T00:41:26.343Z,21.27
2022-08-03T00:43:53.715Z,21.23
2022-08-03T00:46:22.481Z,21.16
2022-08-03T00:48:51.120Z,21.05
2022-08-03T00:51:20.104Z,21.03
2022-08-03T00:53:47.734Z,21.03
2022-08-03T00:56:16.484Z,21.02
2022-08-03T00:58:45.122Z,21.02
2022-08-03T01:01:13.186Z,21.02
2022-08-03T01:03:41.260Z,21.04
2022-08-03T01:06:18.899Z,20.99
2022-08-03T01:09:20.050Z,21.03
2022-08-03T01:12:01.812Z,21.01
2022-08-03T01:14:47.121Z,20.97
2022-08-03T01:17:23.213Z,20.95
2022-08-03T01:20:02.212Z,20.89
2022-08-03T01:22:57.791Z,20.87
2022-08-03T01:25:36.942Z,20.91
2022-08-03T01:28:28.931Z,20.86
2022-08-03T01:31:01.505Z,20.81
2022-08-03T01:33:37.210Z,20.79
2022-08-03T01:36:09.770Z,20.71
2022-08-03T01:38:43.164Z,20.63
2022-08-03T01:41:22.807Z,20.57
2022-08-03T01:44:26.756Z,20.45
2022-08-03T01:46:40.646Z,20.39
2022-08-03T01:49:17.237Z,20.41
2022-08-03T01:51:57.712Z,20.38
2022-08-03T01:54:37.784Z,20.32
2022-08-03T01:57:06.640Z,20.28
2022-08-03T01:59:36.583Z,20.31
2022-08-03T02:02:31.987Z,20.32
2022-08-03T02:04:55.725Z,20.24
2022-08-03T02:07:24.919Z,20.26
2022-08-03T02:09:54.353Z,20.33
2022-08-03T02:12:25.062Z,20.33
2022-08-03T02:14:54.124Z,20.33
2022-08-03T02:17:39.194Z,20.30
2022-08-03T02:20:09.933Z,20.25
2022-08-03T02:22:40.306Z,20.21
2022-08-03T02:25:09.583Z,20.21
2022-08-03T02:27:43.748Z,20.21
2022-08-03T02:30:13.271Z,20.20
2022-08-03T02:32:44.051Z,20.15
2022-08-03T02:35:13.510Z,20.12
2022-08-03T02:37:54.595Z,20.12
2022-08-03T02:40:24.192Z,20.12
2022-08-03T02:42:54.844Z,20.13
2022-08-03T02:45:25.173Z,20.04
2022-08-03T02:47:56.956Z,20.06
2022-08-03T02:50:26.312Z,20.11
2022-08-03T02:52:55.210Z,20.02
2022-08-03T02:55:23.982Z,19.98
2022-08-03T02:57:52.687Z,19.97
2022-08-03T03:00:27.861Z,19.99
2022-08-03T03:03:00.775Z,20.04
2022-08-03T03:05:52.795Z,19.99
2022-08-03T03:08:26.226Z,19.92
2022-08-03T03:10:58.240Z,19.86
2022-08-03T03:13:28.243Z,19.94
2022-08-03T03:15:57.734Z,19.97
2022-08-03T03:18:27.469Z,19.95
2022-08-03T03:20:56.318Z,19.94
2022-08-03T03:23:25.377Z,19.86
2022-08-03T03:25:53.363Z,19.83
2022-08-03T03:28:20.850Z,19.82
2022-08-03T03:30:52.638Z,19.77
2022-08-03T03:33:22.094Z,19.78
2022-08-03T03:35:51.598Z,19.81
2022-08-03T03:38:19.820Z,19.72
2022-08-03T03:40:47.603Z,19.71
2022-08-03T03:43:14.927Z,19.77
2022-08-03T03:45:43.210Z,19.80
2022-08-03T03:48:10.904Z,19.79
2022-08-03T03:50:41.016Z,19.78
2022-08-03T03:53:12.597Z,19.74
2022-08-03T03:56:01.661Z,19.73
2022-08-03T03:58:29.524Z,19.66
2022-08-03T04:00:56.941Z,19.61
2022-08-03T04:03:24.344Z,19.65
2022-08-03T04:06:10.564Z,19.61
2022-08-03T04:08:56.343Z,19.56
2022-08-03T04:11:43.443Z,19.54
2022-08-03T04:14:24.662Z,19.44
2022-08-03T04:16:57.289Z,19.43
2022-08-03T04:19:34.212Z,19.45
2022-08-03T04:22:10.600Z,19.45
2022-08-03T04:24:45.332Z,19.41
2022-08-03T04:27:15.344Z,19.35
2022-08-03T04:29:48.505Z,19.36
2022-08-03T04:32:17.046Z,19.39
2022-08-03T04:34:44.561Z,19.43
2022-08-03T04:37:14.982Z,19.44
2022-08-03T04:39:43.005Z,19.48
2022-08-03T04:42:12.704Z,19.59
2022-08-03T04:44:42.537Z,19.66
2022-08-03T04:49:38.359Z,19.78
2022-08-03T04:52:08.509Z,19.80
2022-08-03T04:54:50.955Z,19.84
2022-08-03T04:57:23.017Z,19.86
2022-08-03T05:00:01.340Z,19.98
2022-08-03T05:02:31.075Z,20.07
2022-08-03T05:04:58.760Z,20.15
2022-08-03T05:07:25.996Z,20.19
2022-08-03T05:10:01.853Z,20.22
2022-08-03T05:12:33.486Z,20.73
2022-08-03T05:15:01.841Z,21.87
2022-08-03T05:17:29.140Z,22.44
2022-08-03T05:19:57.074Z,22.01
2022-08-03T05:22:24.340Z,22.12
2022-08-03T05:24:51.592Z,22.27
2022-08-03T05:27:19.528Z,22.46
2022-08-03T05:29:48.068Z,22.54
2022-08-03T05:32:16.251Z,22.82
2022-08-03T05:34:44.024Z,22.82
2022-08-03T05:37:11.306Z,22.34
2022-08-03T05:39:38.555Z,22.19
2022-08-03T05:42:05.853Z,22.05
2022-08-03T05:44:33.074Z,22.06
2022-08-03T05:47:00.358Z,21.98
2022-08-03T05:49:27.701Z,22.05
2022-08-03T05:51:59.820Z,22.09
2022-08-03T05:54:56.268Z,22.15
2022-08-03T05:57:23.521Z,22.25
2022-08-03T05:59:55.724Z,22.22
2022-08-03T06:02:27.939Z,22.41
2022-08-03T06:04:55.343Z,22.50
2022-08-03T06:07:22.715Z,22.51
2022-08-03T06:10:34.410Z,22.64
2022-08-03T06:12:37.292Z,22.73
2022-08-03T06:15:05.270Z,22.88
2022-08-03T06:17:37.457Z,22.96
2022-08-03T06:20:06.225Z,22.97
2022-08-03T06:22:33.615Z,23.17
2022-08-03T06:25:04.850Z,23.22
2022-08-03T06:27:37.292Z,23.36
2022-08-03T06:30:05.486Z,23.40
2022-08-03T06:32:33.693Z,23.57
2022-08-03T06:35:01.089Z,23.77
2022-08-03T06:37:29.224Z,24.40
2022-08-03T06:39:56.525Z,24.38
2022-08-03T06:42:23.731Z,24.58
2022-08-03T06:44:52.509Z,24.71
2022-08-03T06:47:19.709Z,24.88
2022-08-03T06:50:12.284Z,24.97
2022-08-03T06:52:37.772Z,24.90
2022-08-03T06:55:06.930Z,25.04
2022-08-03T06:57:34.150Z,25.13
2022-08-03T07:00:10.411Z,25.11
2022-08-03T07:02:40.526Z,25.09
2022-08-03T07:05:09.739Z,25.16
2022-08-03T07:07:37.398Z,25.35
2022-08-03T07:10:06.160Z,25.33
2022-08-03T07:12:34.524Z,25.51
2022-08-03T07:15:03.572Z,25.55
2022-08-03T07:17:33.645Z,25.81
2022-08-03T07:20:01.986Z,26.02
2022-08-03T07:22:29.413Z,26.34
2022-08-03T07:24:57.046Z,26.52
2022-08-03T07:27:26.824Z,26.31
2022-08-03T07:29:55.224Z,26.21
2022-08-03T07:32:22.834Z,26.09
2022-08-03T07:34:50.206Z,26.29
2022-08-03T07:37:17.532Z,26.30
2022-08-03T07:39:44.949Z,26.44
2022-08-03T07:42:12.220Z,26.56
2022-08-03T07:44:39.945Z,26.62
2022-08-03T07:47:07.264Z,26.82
2022-08-03T07:49:41.174Z,26.78
2022-08-03T07:52:28.255Z,26.93
2022-08-03T07:54:55.878Z,27.05
2022-08-03T07:57:23.318Z,27.31
2022-08-03T08:00:01.748Z,27.47
2022-08-03T08:02:39.953Z,27.59
2022-08-03T08:05:07.774Z,27.46
2022-08-03T08:07:34.979Z,27.30
2022-08-03T08:10:02.206Z,27.36
2022-08-03T08:12:29.817Z,27.70
2022-08-03T08:14:57.431Z,27.88
2022-08-03T08:17:24.788Z,28.02
2022-08-03T08:19:53.362Z,27.99
2022-08-03T08:22:30.038Z,28.23
2022-08-03T08:25:48.913Z,28.29
2022-08-03T08:31:44.736Z,28.75
2022-08-03T08:34:12.096Z,28.86
2022-08-03T08:36:39.340Z,28.80
2022-08-03T08:39:06.566Z,28.99
2022-08-03T08:41:34.833Z,29.16
2022-08-03T08:44:04.439Z,29.12
2022-08-03T08:46:33.303Z,29.33
2022-08-03T08:49:03.810Z,29.14
2022-08-03T08:51:59.156Z,29.53
2022-08-03T08:54:25.960Z,29.47
2022-08-03T08:56:56.100Z,29.81
2022-08-03T08:59:24.928Z,29.88
2022-08-03T09:01:57.248Z,30.01
2022-08-03T09:04:25.209Z,30.12
2022-08-03T09:07:17.662Z,29.72
2022-08-03T09:10:11.745Z,29.84
2022-08-03T09:12:42.920Z,29.98
2022-08-03T09:15:28.136Z,30.08
2022-08-03T09:17:57.820Z,29.86
2022-08-03T09:20:26.816Z,29.98
2022-08-03T09:23:19.161Z,30.24
2022-08-03T09:25:59.793Z,30.37
2022-08-03T09:29:00.140Z,30.69
2022-08-03T09:31:38.097Z,30.78
2022-08-03T09:34:08.021Z,30.85
2022-08-03T09:36:43.435Z,30.91
2022-08-03T09:39:19.671Z,30.95
2022-08-03T09:42:07.895Z,30.82
2022-08-03T09:44:38.088Z,30.93
2022-08-03T09:47:06.603Z,31.37
2022-08-03T09:49:34.301Z,31.65
2022-08-03T09:52:33.284Z,31.89
2022-08-03T09:55:01.427Z,31.54
2022-08-03T09:57:30.779Z,31.54
2022-08-03T10:00:12.584Z,31.84
2022-08-03T10:02:41.883Z,31.57
2022-08-03T10:05:17.611Z,31.73
2022-08-03T10:07:50.565Z,31.09
2022-08-03T10:10:30.803Z,31.16
2022-08-03T10:13:00.254Z,31.42
2022-08-03T10:16:21.711Z,31.59
2022-08-03T10:18:15.113Z,31.94
2022-08-03T10:20:53.543Z,32.04
2022-08-03T10:23:22.792Z,31.89
2022-08-03T10:25:55.003Z,32.03
2022-08-03T10:28:22.489Z,32.55
2022-08-03T10:30:51.534Z,32.62
2022-08-03T10:33:49.906Z,32.57
2022-08-03T10:36:14.332Z,32.83
2022-08-03T10:38:47.795Z,32.93
2022-08-03T10:41:19.949Z,32.99
2022-08-03T10:44:17.738Z,32.99
2022-08-03T10:46:47.263Z,33.28
2022-08-03T10:49:33.950Z,33.29
2022-08-03T10:52:02.787Z,33.59
2022-08-03T10:55:01.011Z,33.61
2022-08-03T10:57:52.587Z,33.24
2022-08-03T11:00:28.061Z,32.92
2022-08-03T11:03:09.336Z,33.12
2022-08-03T11:05:44.958Z,33.42
2022-08-03T11:08:19.532Z,33.52
2022-08-03T11:10:48.053Z,33.61
2022-08-03T11:13:17.094Z,33.89
2022-08-03T11:15:46.701Z,34.12
2022-08-03T11:18:15.353Z,34.13
2022-08-03T11:20:50.007Z,33.99
2022-08-03T11:23:20.548Z,34.14
2022-08-03T11:26:23.221Z,34.13
2022-08-03T11:28:50.524Z,34.22
2022-08-03T11:31:47.993Z,34.08
2022-08-03T11:34:13.099Z,34.10
2022-08-03T11:37:18.113Z,34.38
2022-08-03T11:39:47.539Z,34.51
2022-08-03T11:42:27.129Z,34.83
2022-08-03T11:44:58.799Z,35.03
2022-08-03T11:47:30.029Z,35.21
2022-08-03T11:50:00.258Z,35.12
2022-08-03T11:52:34.404Z,35.16
2022-08-03T11:55:02.251Z,34.95
2022-08-03T11:59:16.469Z,35.15
2022-08-03T12:00:30.431Z,35.20
2022-08-03T12:03:06.953Z,35.17
2022-08-03T12:05:39.883Z,34.84
2022-08-03T12:08:09.396Z,34.69
2022-08-03T12:10:38.163Z,34.84
2022-08-03T12:13:56.730Z,34.94
2022-08-03T12:15:59.059Z,34.78
2022-08-03T12:18:26.449Z,34.99
2022-08-03T12:21:04.860Z,35.14
2022-08-03T12:23:34.859Z,34.72
2022-08-03T12:26:10.211Z,34.89
2022-08-03T12:28:38.563Z,35.02
2022-08-03T12:31:07.895Z,35.30
2022-08-03T12:34:03.258Z,35.34
2022-08-03T12:36:32.803Z,35.34
2022-08-03T12:39:06.060Z,35.57
2022-08-03T12:41:36.517Z,35.41
2022-08-03T12:44:05.926Z,35.55
2022-08-03T12:46:38.303Z,35.43
2022-08-03T12:49:18.653Z,35.50
2022-08-03T12:51:46.027Z,35.50
2022-08-03T12:54:18.501Z,35.60
2022-08-03T12:57:01.042Z,35.74
2022-08-03T12:59:49.853Z,35.48
2022-08-03T13:02:24.167Z,35.52
2022-08-03T13:04:53.968Z,35.76
2022-08-03T13:07:22.939Z,36.14
2022-08-03T13:09:54.417Z,35.95
2022-08-03T13:12:23.344Z,35.69
2022-08-03T13:14:55.301Z,35.79
2022-08-03T13:17:22.777Z,36.11
2022-08-03T13:19:50.563Z,35.87
2022-08-03T13:22:20.069Z,35.78
2022-08-03T13:24:50.020Z,36.03
2022-08-03T13:28:02.062Z,36.51
2022-08-03T13:30:05.137Z,36.50
2022-08-03T13:32:33.339Z,36.50
2022-08-03T13:35:02.928Z,36.31
2022-08-03T13:37:32.304Z,36.30
2022-08-03T13:40:04.492Z,36.43
2022-08-03T13:42:33.674Z,36.75
2022-08-03T13:45:01.755Z,36.91
2022-08-03T13:47:29.175Z,37.01
2022-08-03T13:50:01.845Z,36.90
2022-08-03T13:52:36.594Z,36.80
2022-08-03T13:55:06.417Z,36.72
2022-08-03T13:58:02.971Z,36.71
2022-08-03T14:00:28.498Z,36.50
2022-08-03T14:03:06.458Z,36.95
2022-08-03T14:05:35.829Z,37.34
2022-08-03T14:08:05.662Z,37.64
2022-08-03T14:10:38.415Z,37.63
2022-08-03T14:13:06.373Z,37.79
2022-08-03T14:15:37.205Z,38.08
2022-08-03T14:18:06.727Z,38.69
2022-08-03T14:20:46.968Z,39.75
2022-08-03T14:23:17.899Z,40.37
2022-08-03T14:25:51.505Z,41.45
2022-08-03T14:28:23.083Z,41.97
2022-08-03T14:30:54.626Z,42.51
2022-08-03T14:33:22.408Z,43.52
2022-08-03T14:35:50.363Z,44.37
2022-08-03T14:38:18.339Z,44.21
2022-08-03T14:40:45.799Z,44.63
2022-08-03T14:43:13.249Z,44.87
2022-08-03T14:45:40.845Z,44.61
2022-08-03T14:50:33.508Z,45.29
2022-08-03T14:50:56.662Z,46.23
2022-08-03T14:53:24.201Z,46.16
2022-08-03T14:55:52.945Z,45.25
2022-08-03T14:58:22.068Z,45.49
2022-08-03T15:00:51.682Z,46.27
2022-08-03T15:03:23.044Z,47.24
2022-08-03T15:05:55.415Z,47.16
2022-08-03T15:08:24.679Z,47.97
2022-08-03T15:10:53.096Z,48.03
2022-08-03T15:13:20.919Z,47.11
2022-08-03T15:15:49.794Z,46.87
2022-08-03T15:18:17.152Z,47.77
2022-08-03T15:20:46.278Z,48.48
2022-08-03T15:23:15.628Z,47.85
2022-08-03T15:26:06.570Z,46.59
2022-08-03T15:28:32.569Z,46.15
2022-08-03T15:31:00.403Z,47.61
2022-08-03T15:33:28.409Z,47.47
2022-08-03T15:35:56.568Z,47.53
2022-08-03T15:38:25.981Z,46.11
2022-08-03T15:40:55.048Z,47.77
2022-08-03T15:43:23.148Z,47.99
2022-08-03T15:46:12.833Z,47.21
2022-08-03T15:48:39.350Z,46.85
2022-08-03T15:51:07.498Z,48.31
2022-08-03T15:53:35.022Z,46.26
2022-08-03T15:56:09.431Z,47.55
2022-08-03T15:59:03.758Z,45.80
2022-08-03T16:01:26.816Z,47.18
2022-08-03T16:03:54.120Z,46.73
2022-08-03T16:06:35.343Z,46.17
2022-08-03T16:09:22.949Z,46.70
2022-08-03T16:11:53.967Z,45.11
2022-08-03T16:14:34.235Z,44.67
2022-08-03T16:17:05.322Z,47.08
2022-08-03T16:19:32.571Z,46.53
2022-08-03T16:22:00.847Z,45.00
2022-08-03T16:24:28.441Z,46.02
2022-08-03T16:26:56.642Z,45.86
2022-08-03T16:29:24.214Z,44.56
2022-08-03T16:31:52.791Z,41.25
2022-08-03T16:34:21.157Z,40.29
2022-08-03T16:36:48.598Z,38.14
2022-08-03T16:39:15.921Z,37.58
2022-08-03T16:41:54.078Z,36.90
2022-08-03T16:44:30.466Z,36.35
2022-08-03T16:46:58.821Z,35.80
2022-08-03T16:49:55.030Z,35.11
2022-08-03T16:52:13.790Z,34.66
2022-08-03T16:54:44.418Z,34.57
2022-08-03T16:57:55.787Z,34.50
2022-08-03T17:00:09.660Z,34.25
2022-08-03T17:02:37.875Z,34.18
2022-08-03T17:05:05.581Z,34.33
2022-08-03T17:07:32.897Z,34.37
2022-08-03T17:10:01.556Z,34.06
2022-08-03T17:12:29.086Z,33.82
2022-08-03T17:14:57.449Z,33.62
2022-08-03T17:17:47.646Z,33.41
2022-08-03T17:20:19.643Z,33.29
2022-08-03T17:22:54.125Z,33.13
2022-08-03T17:26:01.437Z,33.00
2022-08-03T17:28:48.299Z,32.80
2022-08-03T17:31:23.495Z,32.67
2022-08-03T17:34:01.638Z,32.49
2022-08-03T17:39:30.882Z,32.27
2022-08-03T17:42:05.305Z,32.26
2022-08-03T17:44:53.686Z,32.08
2022-08-03T17:47:21.679Z,32.05
2022-08-03T17:49:49.443Z,31.95
2022-08-03T17:52:24.509Z,31.77
2022-08-03T17:55:55.978Z,31.67
2022-08-03T17:58:13.717Z,31.63
2022-08-03T18:01:04.328Z,31.48
2022-08-03T18:03:59.762Z,31.32
2022-08-03T18:06:31.423Z,31.17
2022-08-03T18:09:04.783Z,31.10
2022-08-03T18:11:37.029Z,31.06
2022-08-03T18:14:19.824Z,31.00
2022-08-03T18:16:57.894Z,30.87
2022-08-03T18:20:02.766Z,30.76
2022-08-03T18:22:20.845Z,30.62
2022-08-03T18:24:52.329Z,30.53
2022-08-03T18:27:21.286Z,30.37
2022-08-03T18:29:50.573Z,30.29
2022-08-03T18:32:18.880Z,30.17
2022-08-03T18:34:53.369Z,30.07
2022-08-03T18:37:25.332Z,30.00
2022-08-03T18:39:58.007Z,29.83
2022-08-03T18:42:26.822Z,29.75
2022-08-03T18:44:57.516Z,29.65
2022-08-03T18:48:05.003Z,29.47
2022-08-03T18:50:49.498Z,29.35
2022-08-03T18:54:02.992Z,29.24
2022-08-03T18:56:31.654Z,29.16
2022-08-03T18:59:14.052Z,29.05
2022-08-03T19:01:57.706Z,28.91
2022-08-03T19:04:33.396Z,28.77
2022-08-03T19:07:06.976Z,28.68
2022-08-03T19:09:38.020Z,28.60
2022-08-03T19:12:28.145Z,28.52
2022-08-03T19:15:13.037Z,28.44
2022-08-03T19:17:52.958Z,28.41
2022-08-03T19:20:23.136Z,28.32
2022-08-03T19:22:56.001Z,28.25
2022-08-03T19:25:34.311Z,28.17
2022-08-03T19:28:06.276Z,28.13
2022-08-03T19:30:39.108Z,28.02
2022-08-03T19:33:09.253Z,27.96
2022-08-03T19:35:54.904Z,27.85
2022-08-03T19:38:28.465Z,27.70
2022-08-03T19:41:00.847Z,27.59
2022-08-03T19:43:53.513Z,27.49
2022-08-03T19:46:30.119Z,27.45
2022-08-03T19:49:15.422Z,27.39
2022-08-03T19:54:56.771Z,27.21
2022-08-03T19:57:27.128Z,27.16
2022-08-03T19:59:56.448Z,27.10
2022-08-03T20:02:27.229Z,27.03
2022-08-03T20:04:57.151Z,26.98
2022-08-03T20:07:25.930Z,26.98
2022-08-03T20:09:56.643Z,26.91
2022-08-03T20:12:29.019Z,26.81
2022-08-03T20:14:58.114Z,26.76
2022-08-03T20:20:18.543Z,26.68
2022-08-03T20:22:48.109Z,26.64
2022-08-03T20:25:20.671Z,26.58
2022-08-03T20:28:07.919Z,26.54
2022-08-03T20:30:44.446Z,26.47
2022-08-03T20:33:18.229Z,26.40
2022-08-03T20:35:48.944Z,26.22
2022-08-03T20:38:18.715Z,26.10
2022-08-03T20:40:47.556Z,26.02
2022-08-03T20:43:16.614Z,26.04
2022-08-03T20:46:00.051Z,26.04
2022-08-03T20:48:36.113Z,25.98
2022-08-03T20:51:19.778Z,25.94
2022-08-03T20:53:57.065Z,25.84
2022-08-03T20:56:32.007Z,25.82
2022-08-03T20:59:06.003Z,25.72
2022-08-03T21:01:36.244Z,25.73
2022-08-03T21:04:06.999Z,25.67
2022-08-03T21:06:53.234Z,25.72
2022-08-03T21:09:33.373Z,25.68
2022-08-03T21:12:05.029Z,25.65
2022-08-03T21:13:03.793Z,26.73
2022-08-03T21:13:09.285Z,27.29
2022-08-03T21:15:03.733Z,25.52
2022-08-03T21:17:41.477Z,25.44
2022-08-03T21:20:10.789Z,25.42
2022-08-03T21:22:41.311Z,25.37
2022-08-03T21:25:09.588Z,25.35
2022-08-03T21:27:37.295Z,25.29
2022-08-03T21:30:08.130Z,25.26
2022-08-03T21:32:36.350Z,25.25
2022-08-03T21:35:03.880Z,25.19
2022-08-03T21:37:31.086Z,25.17
2022-08-03T21:39:58.422Z,25.12
2022-08-03T21:42:25.764Z,25.09
2022-08-03T21:44:53.499Z,25.05
2022-08-03T21:47:22.525Z,25.03
2022-08-03T21:50:08.900Z,25.05
2022-08-03T21:52:42.691Z,25.01
2022-08-03T21:55:18.370Z,24.94
2022-08-03T21:57:52.852Z,24.82
2022-08-03T22:00:23.116Z,24.74
2022-08-03T22:02:57.237Z,24.67
2022-08-03T22:05:43.016Z,24.60
2022-08-03T22:08:13.624Z,24.48
2022-08-03T22:10:43.656Z,24.39
2022-08-03T22:13:13.279Z,24.39
2022-08-03T22:15:40.924Z,24.40
2022-08-03T22:18:08.173Z,24.40
2022-08-03T22:20:35.625Z,24.35
2022-08-03T22:23:06.324Z,24.24
2022-08-03T22:25:36.526Z,24.16
2022-08-03T22:28:12.022Z,24.12
2022-08-03T22:30:40.940Z,24.00
2022-08-03T22:33:11.182Z,23.95
2022-08-03T22:35:47.814Z,23.87
2022-08-03T22:38:17.254Z,23.81
2022-08-03T22:40:46.991Z,23.82
2022-08-03T22:43:14.320Z,23.71
2022-08-03T22:46:09.192Z,23.68
2022-08-03T22:48:35.913Z,23.65
2022-08-03T22:51:09.394Z,23.62
2022-08-03T22:53:37.076Z,23.57
2022-08-03T22:56:04.605Z,23.47
2022-08-03T22:58:31.827Z,23.40
2022-08-03T23:01:07.763Z,23.34
2022-08-03T23:03:59.712Z,23.25
2022-08-03T23:06:31.953Z,23.14
2022-08-03T23:08:59.441Z,23.10
2022-08-03T23:11:28.496Z,23.08
2022-08-03T23:13:58.778Z,23.08
2022-08-03T23:16:28.817Z,23.04
2022-08-03T23:18:59.536Z,23.00
2022-08-03T23:21:53.859Z,23.01
2022-08-03T23:24:29.850Z,22.93
2022-08-03T23:26:58.890Z,22.86
2022-08-03T23:29:29.174Z,22.81
2022-08-03T23:31:57.505Z,22.74
2022-08-03T23:34:44.510Z,22.67
2022-08-03T23:37:15.135Z,22.61
2022-08-03T23:39:47.133Z,22.60
2022-08-03T23:42:19.184Z,22.49
2022-08-03T23:44:47.246Z,22.39
2022-08-03T23:47:14.623Z,22.25
2022-08-03T23:49:41.941Z,22.16
2022-08-03T23:52:19.093Z,22.09
2022-08-03T23:55:13.076Z,22.03
2022-08-03T23:57:56.027Z,22.10
